Time;durP1;ratioP1;P1;durP2;ratioP2;P2;SDS_P1;SDS_P2;PMS_P1;PMS_P2;Temp;Humidity;BMP_temperature;BMP_pressure;BME280_temperature;BME280_humidity;BME280_pressure;Samples;Min_cycle;Max_cycle;Signal;HPM_P1;HPM_P2
2021/04/21 00:01:16;;;;;;;12.40;8.05;;;;;;;8.53;66.34;98747.66;113918;1200;64503;-88
2021/04/21 00:03:44;;;;;;;8.90;7.10;;;;;;;8.55;66.05;98741.27;113857;1200;64378;-85
2021/04/21 00:06:13;;;;;;;12.03;8.53;;;;;;;8.56;66.32;98742.12;114138;1199;64461;-89
2021/04/21 00:08:40;;;;;;;13.33;8.13;;;;;;;8.60;66.06;98746.28;113913;1199;64435;-88
2021/04/21 00:11:07;;;;;;;12.63;8.43;;;;;;;8.68;66.42;98743.94;113800;1199;64439;-87
2021/04/21 00:13:34;;;;;;;10.60;7.30;;;;;;;8.77;66.41;98743.28;114124;1199;64340;-83
2021/04/21 00:16:02;;;;;;;11.13;7.67;;;;;;;8.84;66.25;98730.39;114007;1198;64429;-86
2021/04/21 00:18:29;;;;;;;9.73;6.60;;;;;;;8.89;66.17;98731.77;113955;1200;64346;-87
2021/04/21 00:21:02;;;;;;;11.20;7.90;;;;;;;8.93;66.03;98738.60;113887;1200;64308;-85
2021/04/21 00:23:32;;;;;;;9.37;6.87;;;;;;;8.94;66.02;98726.98;113854;1199;64324;-92
2021/04/21 00:26:01;;;;;;;12.65;8.90;;;;;;;8.97;66.18;98735.70;113904;1200;64446;-90
2021/04/21 00:28:32;;;;;;;13.45;8.25;;;;;;;8.94;66.11;98734.97;114164;1199;64455;-90
2021/04/21 00:31:04;;;;;;;13.45;8.90;;;;;;;8.90;66.15;98727.30;113894;1200;64397;-85
2021/04/21 00:33:33;;;;;;;16.03;10.23;;;;;;;8.83;66.15;98732.20;113887;1199;64382;-86
2021/04/21 00:36:02;;;;;;;17.43;10.97;;;;;;;8.79;66.38;98737.88;113812;1199;64366;-88
2021/04/21 00:38:30;;;;;;;18.55;10.80;;;;;;;8.70;66.55;98728.70;113862;1200;64729;-87
2021/04/21 00:41:07;;;;;;;15.60;10.57;;;;;;;8.63;66.17;98727.42;113821;1199;64436;-89
2021/04/21 00:43:51;;;;;;;15.85;11.20;;;;;;;8.53;66.43;98727.22;113847;1199;65228;-85
2021/04/21 00:46:32;;;;;;;15.73;10.20;;;;;;;8.50;66.53;98727.42;113886;1200;64302;-88
2021/04/21 00:49:14;;;;;;;17.97;10.90;;;;;;;8.46;66.79;98727.72;113826;1199;64429;-85
2021/04/21 00:52:05;;;;;;;16.75;10.85;;;;;;;8.42;66.64;98726.25;114139;1200;64404;-88
2021/04/21 00:54:36;;;;;;;20.70;11.40;;;;;;;8.36;66.51;98725.70;113851;1198;64352;-86
2021/04/21 00:57:13;;;;;;;18.03;11.53;;;;;;;8.31;66.61;98719.81;113861;1199;64448;-88
2021/04/21 01:00:12;;;;;;;18.10;12.15;;;;;;;8.29;66.71;98728.86;113889;1200;64401;-86
2021/04/21 01:02:56;;;;;;;18.25;11.50;;;;;;;8.22;67.01;98725.77;113933;1199;64362;-90
2021/04/21 01:05:33;;;;;;;18.50;12.15;;;;;;;8.14;66.97;98722.75;114506;1199;64474;-85
2021/04/21 01:08:07;;;;;;;20.10;12.20;;;;;;;8.07;66.92;98726.78;113807;1200;64430;-84
2021/04/21 01:10:41;;;;;;;22.37;13.13;;;;;;;8.00;67.05;98728.16;113912;1199;64432;-85
2021/04/21 01:13:09;;;;;;;20.60;13.60;;;;;;;7.90;67.12;98729.73;113816;1199;64468;-86
2021/04/21 01:15:39;;;;;;;23.43;12.43;;;;;;;7.83;67.09;98726.63;113798;1198;64362;-86
2021/04/21 01:18:08;;;;;;;22.15;11.70;;;;;;;7.73;67.56;98729.03;114056;1200;64695;-87
2021/04/21 01:21:04;;;;;;;28.37;14.13;;;;;;;7.62;67.12;98731.53;113997;1199;64363;-87
2021/04/21 01:23:50;;;;;;;36.37;14.07;;;;;;;7.56;67.06;98734.58;113918;1199;64334;-87
2021/04/21 01:26:16;;;;;;;;;;;;;;;7.48;67.40;98727.11;114094;1204;64369;-84
2021/04/21 01:28:47;;;;;;;38.23;14.97;;;;;;;7.45;67.93;98729.13;113799;1199;64464;-85
2021/04/21 01:31:17;;;;;;;35.50;14.65;;;;;;;7.33;67.51;98725.45;113803;1199;64397;-86
2021/04/21 01:33:47;;;;;;;31.63;14.87;;;;;;;7.23;67.30;98727.83;113957;1200;64333;-88
2021/04/21 01:36:18;;;;;;;24.35;14.50;;;;;;;7.18;67.59;98727.27;113931;1199;64308;-84
2021/04/21 01:38:47;;;;;;;26.53;12.87;;;;;;;7.11;67.94;98727.75;113862;1200;64429;-88
2021/04/21 01:41:20;;;;;;;26.43;13.57;;;;;;;7.09;67.48;98727.86;113845;1200;64455;-90
2021/04/21 01:43:52;;;;;;;22.50;14.20;;;;;;;7.02;67.61;98727.40;114113;1199;64323;-86
2021/04/21 01:46:21;;;;;;;28.40;13.93;;;;;;;6.95;68.07;98723.42;113852;1199;64417;-85
2021/04/21 01:48:50;;;;;;;23.83;12.43;;;;;;;6.88;67.97;98723.91;113916;1199;64365;-86
2021/04/21 01:51:33;;;;;;;19.40;11.80;;;;;;;6.88;67.48;98723.91;113902;1198;64349;-89
2021/04/21 01:54:16;;;;;;;17.70;10.77;;;;;;;6.85;67.84;98724.08;113803;1200;64416;-86
2021/04/21 01:56:53;;;;;;;17.53;10.53;;;;;;;6.88;67.73;98722.10;114040;1199;64477;-87
2021/04/21 01:59:43;;;;;;;14.50;8.57;;;;;;;6.98;68.48;98725.02;113912;1200;64819;-86
2021/04/21 02:02:12;;;;;;;17.75;10.55;;;;;;;7.14;68.13;98725.78;113834;1200;64439;-87
2021/04/21 02:05:03;;;;;;;15.67;11.23;;;;;;;7.31;68.59;98724.68;114012;1199;64199;-84
2021/04/21 02:07:52;;;;;;;16.60;10.20;;;;;;;7.45;68.24;98716.70;113843;1199;64484;-85
2021/04/21 02:10:45;;;;;;;17.50;11.23;;;;;;;7.53;68.10;98716.20;113833;1198;64366;-87
2021/04/21 02:13:46;;;;;;;18.35;11.40;;;;;;;7.50;68.13;98721.69;113830;1199;64343;-86
2021/04/21 02:16:34;;;;;;;15.67;10.50;;;;;;;7.55;67.96;98719.59;114149;1199;64481;-85
2021/04/21 02:19:36;;;;;;;15.80;10.20;;;;;;;7.60;68.31;98720.16;113878;1199;64742;-86
2021/04/21 02:22:30;;;;;;;17.30;9.85;;;;;;;7.64;68.15;98716.36;113854;1200;64359;-87
2021/04/21 02:25:18;;;;;;;17.87;10.43;;;;;;;7.66;68.03;98718.91;113920;1198;64356;-90
2021/04/21 02:28:04;;;;;;;14.70;9.77;;;;;;;7.72;67.92;98718.50;114070;1200;64375;-88
2021/04/21 02:30:46;;;;;;;13.90;9.87;;;;;;;7.75;67.94;98718.28;113857;1200;64467;-87
2021/04/21 02:33:30;;;;;;;17.13;10.30;;;;;;;7.72;67.77;98710.53;113881;1198;64345;-87
2021/04/21 02:36:09;;;;;;;20.13;12.20;;;;;;;7.73;68.12;98720.20;113975;1200;64378;-84
2021/04/21 02:38:50;;;;;;;15.57;11.87;;;;;;;7.69;67.67;98719.54;113976;1199;64381;-84
2021/04/21 02:41:23;;;;;;;16.13;11.67;;;;;;;7.64;68.25;98716.36;113854;1200;64558;-88
2021/04/21 02:44:08;;;;;;;18.67;12.40;;;;;;;7.59;68.02;98719.30;114170;1198;64394;-89
2021/04/21 02:46:59;;;;;;;21.07;11.03;;;;;;;7.52;68.31;98720.66;113916;1200;64410;-87
2021/04/21 02:50:00;;;;;;;16.90;11.57;;;;;;;7.44;67.93;98720.28;113874;1199;64321;-85
2021/04/21 02:52:49;;;;;;;18.90;10.90;;;;;;;7.38;68.14;98723.36;114111;1199;64353;-86
2021/04/21 02:55:31;;;;;;;15.20;10.70;;;;;;;7.38;67.85;98720.70;113923;1200;64324;-86
2021/04/21 02:58:11;;;;;;;15.70;11.10;;;;;;;7.38;68.14;98727.80;113808;1200;64346;-84
2021/04/21 03:01:01;;;;;;;17.35;10.55;;;;;;;7.32;67.92;98721.09;114210;1200;64363;-90
2021/04/21 03:03:50;;;;;;;17.85;11.55;;;;;;;7.23;68.35;98714.55;113814;1198;64413;-85
2021/04/21 03:06:23;;;;;;;16.50;11.90;;;;;;;7.20;68.27;98721.88;114227;1199;64337;-88
2021/04/21 03:09:00;;;;;;;16.60;11.63;;;;;;;7.11;68.10;98712.67;113889;1200;64427;-91
2021/04/21 03:11:29;;;;;;;20.55;11.35;;;;;;;7.03;68.49;98707.00;113860;1200;64337;-86
2021/04/21 03:14:18;;;;;;;19.40;12.55;;;;;;;6.98;68.52;98709.09;114043;1198;64308;-87
2021/04/21 03:16:56;;;;;;;21.73;14.30;;;;;;;6.81;67.95;98709.28;113988;1200;64384;-86
2021/04/21 03:19:32;;;;;;;28.77;16.47;;;;;;;6.61;67.63;98708.72;113951;1200;64446;-84
2021/04/21 03:22:05;;;;;;;27.60;15.27;;;;;;;6.44;68.18;98706.27;113959;1199;64339;-87
2021/04/21 03:24:37;;;;;;;35.40;15.43;;;;;;;6.29;68.17;98699.22;114240;1199;64404;-84
2021/04/21 03:27:06;;;;;;;30.35;15.70;;;;;;;6.14;68.25;98699.20;113767;1199;64468;-86
2021/04/21 03:29:46;;;;;;;30.17;15.10;;;;;;;6.06;68.23;98700.61;113848;1200;64368;-85
2021/04/21 03:32:21;;;;;;;28.87;16.67;;;;;;;5.97;68.87;98701.98;113759;1198;64509;-86
2021/04/21 03:34:50;;;;;;;30.83;16.97;;;;;;;5.90;68.87;98705.91;113865;1200;64366;-88
2021/04/21 03:37:28;;;;;;;28.10;14.77;;;;;;;5.84;68.81;98696.52;113855;1199;64509;-87
2021/04/21 03:39:56;;;;;;;19.10;12.50;;;;;;;5.91;69.44;98702.34;113813;1199;64525;-86
2021/04/21 03:42:22;;;;;;;18.10;12.67;;;;;;;6.11;69.35;98703.84;113914;1199;64394;-85
2021/04/21 03:44:50;;;;;;;19.55;13.60;;;;;;;6.32;69.53;98704.35;114066;1199;64304;-86
2021/04/21 03:47:17;;;;;;;26.20;17.03;;;;;;;6.39;68.54;98703.03;114138;1196;64369;-87
2021/04/21 03:49:45;;;;;;;53.87;23.50;;;;;;;6.28;68.64;98705.47;113939;1197;64409;-87
2021/04/21 03:52:14;;;;;;;40.37;18.63;;;;;;;6.15;68.96;98705.35;114430;1196;65343;-87
2021/04/21 03:54:41;;;;;;;48.73;22.20;;;;;;;6.05;68.98;98710.36;114191;1196;64302;-90
2021/04/21 03:57:13;;;;;;;62.70;26.57;;;;;;;5.94;69.10;98705.69;114663;1193;64494;-86
2021/04/21 03:59:41;;;;;;;37.77;18.17;;;;;;;5.84;68.57;98708.92;114398;1192;64451;-87
2021/04/21 04:02:11;;;;;;;42.80;18.00;;;;;;;5.81;68.98;98717.06;114449;1193;64352;-87
2021/04/21 04:04:44;;;;;;;54.83;21.80;;;;;;;5.86;69.56;98712.36;114375;1193;64391;-86
2021/04/21 04:07:14;;;;;;;37.33;19.03;;;;;;;5.96;68.90;98713.53;114436;1193;64401;-89
2021/04/21 04:09:48;;;;;;;44.20;19.25;;;;;;;6.04;69.21;98707.78;114287;1193;64523;-85
2021/04/21 04:12:18;;;;;;;31.33;17.90;;;;;;;6.21;69.38;98716.44;114379;1193;64448;-85
2021/04/21 04:14:47;;;;;;;25.25;16.50;;;;;;;6.46;69.73;98713.17;114851;1193;64446;-83
2021/04/21 04:17:21;;;;;;;21.40;15.15;;;;;;;6.76;69.61;98714.91;115245;1192;64336;-90
2021/04/21 04:19:49;;;;;;;21.70;15.40;;;;;;;6.98;69.39;98717.05;114789;1193;64394;-87
2021/04/21 04:22:20;;;;;;;20.15;13.85;;;;;;;7.12;68.89;98717.03;114303;1193;64494;-85
2021/04/21 04:24:56;;;;;;;21.55;13.95;;;;;;;7.23;68.62;98717.20;114389;1193;64308;-85
2021/04/21 04:27:28;;;;;;;21.80;12.73;;;;;;;7.40;68.59;98713.48;114611;1193;64307;-86
2021/04/21 04:29:57;;;;;;;23.00;13.87;;;;;;;7.54;68.86;98715.23;114393;1193;64333;-86
2021/04/21 04:32:26;;;;;;;20.67;13.90;;;;;;;7.65;68.57;98722.52;114440;1193;64458;-85
2021/04/21 04:34:56;;;;;;;30.60;15.15;;;;;;;7.74;68.60;98719.25;114538;1193;64470;-84
2021/04/21 04:37:28;;;;;;;25.35;15.05;;;;;;;7.80;68.38;98717.03;114857;1193;64416;-84
2021/04/21 04:39:55;;;;;;;20.70;13.83;;;;;;;7.92;68.57;98720.69;114341;1193;64410;-88
2021/04/21 04:42:23;;;;;;;26.10;14.87;;;;;;;7.99;68.41;98715.81;114416;1193;64369;-85
2021/04/21 04:44:51;;;;;;;25.60;14.93;;;;;;;8.03;68.57;98715.52;114642;1193;64382;-87
2021/04/21 04:47:38;;;;;;;27.60;14.25;;;;;;;8.13;68.35;98716.58;114854;1193;64343;-84
2021/04/21 04:50:14;;;;;;;24.50;14.80;;;;;;;8.25;68.48;98720.22;114631;1193;64465;-85
2021/04/21 04:52:44;;;;;;;26.40;13.80;;;;;;;8.33;68.53;98717.92;115423;1193;64391;-84
2021/04/21 04:55:14;;;;;;;21.33;13.93;;;;;;;8.46;68.12;98720.63;116494;1192;64173;-84
2021/04/21 04:57:47;;;;;;;18.50;12.67;;;;;;;8.56;68.16;98721.67;116997;1192;63437;-85
2021/04/21 05:00:17;;;;;;;22.45;14.30;;;;;;;8.66;68.03;98725.41;114845;1193;64449;-84
2021/04/21 05:03:23;;;;;;;37.67;15.40;;;;;;;8.85;67.94;98732.13;114550;1193;64455;-84
2021/04/21 05:05:55;;;;;;;20.25;14.40;;;;;;;9.09;68.01;98732.17;114539;1192;64464;-84
2021/04/21 05:08:43;;;;;;;22.75;12.75;;;;;;;9.25;67.57;98729.28;114579;1193;64356;-86
2021/04/21 05:11:21;;;;;;;20.53;13.30;;;;;;;9.38;67.47;98725.62;114585;1193;64334;-84
2021/04/21 05:13:57;;;;;;;26.50;12.90;;;;;;;9.53;67.40;98728.13;114862;1192;64343;-84
2021/04/21 05:16:24;;;;;;;28.63;13.50;;;;;;;9.56;67.44;98723.44;114422;1193;64362;-84
2021/04/21 05:19:04;;;;;;;18.60;12.20;;;;;;;9.73;67.01;98716.84;114456;1193;64366;-83
2021/04/21 05:22:02;;;;;;;23.97;13.40;;;;;;;9.89;67.11;98716.56;114627;1193;64401;-83
2021/04/21 05:24:45;;;;;;;29.70;11.90;;;;;;;10.16;67.28;98721.64;114874;1192;64420;-85
2021/04/21 05:27:24;;;;;;;19.53;11.73;;;;;;;10.27;67.05;98722.56;114888;1192;64619;-86
2021/04/21 05:30:29;;;;;;;16.13;10.80;;;;;;;10.54;67.00;98716.07;114605;1193;64362;-85
2021/04/21 05:32:59;;;;;;;21.55;12.30;;;;;;;10.88;66.80;98725.00;114614;1193;64320;-86
2021/04/21 05:35:44;;;;;;;19.83;12.43;;;;;;;11.18;66.69;98727.05;114377;1193;64497;-86
2021/04/21 05:38:30;;;;;;;17.05;10.60;;;;;;;11.58;66.54;98726.53;114338;1192;64349;-86
2021/04/21 05:41:30;;;;;;;17.47;11.00;;;;;;;11.86;65.88;98717.11;114347;1193;64374;-88
2021/04/21 05:44:31;;;;;;;18.40;10.70;;;;;;;12.09;66.05;98718.73;114374;1193;64449;-85
2021/04/21 05:47:36;;;;;;;19.10;11.60;;;;;;;12.37;65.52;98716.39;114335;1192;64359;-85
2021/04/21 05:50:26;;;;;;;15.50;10.93;;;;;;;12.46;65.27;98720.95;114388;1193;64311;-85
2021/04/21 05:53:37;;;;;;;23.93;11.07;;;;;;;12.39;64.05;98715.27;114456;1193;64366;-83
2021/04/21 05:56:42;;;;;;;18.15;11.25;;;;;;;12.27;64.51;98715.47;114354;1193;64366;-86
2021/04/21 05:59:52;;;;;;;25.00;11.43;;;;;;;11.85;65.70;98726.11;114893;1192;64362;-84
2021/04/21 06:02:26;;;;;;;17.03;11.80;;;;;;;11.55;65.93;98726.76;114578;1193;64365;-83
2021/04/21 06:05:11;;;;;;;24.35;11.70;;;;;;;11.59;66.34;98723.72;114743;1192;64395;-86
2021/04/21 06:07:44;;;;;;;21.33;11.90;;;;;;;11.88;66.11;98728.52;114630;1191;64451;-86
2021/04/21 06:10:23;;;;;;;21.30;12.07;;;;;;;12.16;66.13;98719.91;114415;1192;64371;-86
2021/04/21 06:12:51;;;;;;;22.77;12.93;;;;;;;12.52;66.21;98725.80;114541;1193;64301;-85
2021/04/21 06:15:24;;;;;;;22.45;11.50;;;;;;;12.80;65.53;98718.08;114683;1193;64286;-85
2021/04/21 06:17:56;;;;;;;19.40;10.27;;;;;;;12.90;65.17;98714.45;114614;1193;64423;-85
2021/04/21 06:20:39;;;;;;;24.63;11.87;;;;;;;13.03;65.30;98724.11;114524;1193;64404;-85
2021/04/21 06:23:12;;;;;;;17.60;11.17;;;;;;;13.18;65.79;98709.38;114454;1193;64426;-86
2021/04/21 06:25:42;;;;;;;23.35;13.20;;;;;;;13.30;65.29;98718.20;114470;1193;64394;-86
2021/04/21 06:28:22;;;;;;;25.40;13.43;;;;;;;13.48;65.61;98712.02;114311;1193;64432;-87
2021/04/21 06:31:11;;;;;;;32.23;14.23;;;;;;;13.63;65.09;98712.50;114379;1193;64352;-89
2021/04/21 06:33:40;;;;;;;25.60;11.85;;;;;;;13.79;65.02;98699.38;114371;1193;64359;-90
2021/04/21 06:36:14;;;;;;;25.10;13.00;;;;;;;13.85;64.87;98699.81;114398;1193;64356;-86
2021/04/21 06:38:42;;;;;;;23.93;12.30;;;;;;;13.90;64.83;98700.24;114465;1193;64244;-85
2021/04/21 06:41:08;;;;;;;20.70;12.13;;;;;;;13.92;63.75;98706.31;114411;1193;64349;-89
2021/04/21 06:43:38;;;;;;;19.00;11.87;;;;;;;13.81;64.44;98698.41;114476;1193;65918;-85
2021/04/21 06:46:10;;;;;;;23.70;10.80;;;;;;;13.96;65.26;98702.37;114511;1193;64388;-85
2021/04/21 06:48:39;;;;;;;24.10;11.40;;;;;;;14.11;64.59;98692.89;114395;1193;64477;-89
2021/04/21 06:51:08;;;;;;;22.60;12.00;;;;;;;14.22;64.37;98703.49;114261;1193;64374;-88
2021/04/21 06:53:35;;;;;;;20.17;12.07;;;;;;;14.34;64.30;98699.67;114249;1193;64397;-89
2021/04/21 06:56:01;;;;;;;20.05;11.85;;;;;;;14.44;64.06;98712.23;114447;1193;64381;-84
2021/04/21 06:58:29;;;;;;;21.20;10.93;;;;;;;14.60;63.83;98712.53;114337;1192;64493;-85
2021/04/21 07:01:10;;;;;;;22.13;13.17;;;;;;;14.67;64.54;98697.52;114336;1193;64474;-83
2021/04/21 07:03:38;;;;;;;19.40;10.90;;;;;;;14.86;63.23;98696.63;114355;1192;64490;-83
2021/04/21 07:06:05;;;;;;;16.07;9.90;;;;;;;14.87;63.70;98698.31;114597;1193;64525;-85
2021/04/21 07:08:40;;;;;;;14.23;9.73;;;;;;;14.84;63.38;98694.09;114442;1193;64372;-89
2021/04/21 07:11:11;;;;;;;17.43;10.53;;;;;;;14.97;64.11;98699.14;114401;1193;64742;-87
2021/04/21 07:13:47;;;;;;;16.67;10.70;;;;;;;15.05;63.52;98704.63;114399;1193;64439;-88
2021/04/21 07:16:29;;;;;;;16.70;10.35;;;;;;;15.14;62.65;98702.88;114429;1192;64305;-84
2021/04/21 07:19:04;;;;;;;13.37;9.70;;;;;;;15.12;63.80;98707.56;114467;1193;64372;-86
2021/04/21 07:21:33;;;;;;;15.05;9.85;;;;;;;15.28;63.53;98707.80;114444;1193;64449;-86
2021/04/21 07:24:02;;;;;;;17.10;9.30;;;;;;;15.32;63.11;98706.48;114508;1193;64423;-85
2021/04/21 07:26:40;;;;;;;29.97;9.60;;;;;;;15.37;63.33;98703.34;114585;1193;64376;-84
2021/04/21 07:29:18;;;;;;;13.60;8.50;;;;;;;15.47;62.99;98706.00;114425;1193;64487;-83
2021/04/21 07:31:45;;;;;;;16.50;8.70;;;;;;;15.45;63.06;98705.28;114355;1193;64471;-85
2021/04/21 07:34:34;;;;;;;14.65;9.15;;;;;;;15.49;63.11;98714.77;114411;1193;66028;-88
2021/04/21 07:37:02;;;;;;;11.10;8.87;;;;;;;15.59;63.05;98711.03;114310;1193;64365;-85
2021/04/21 07:39:36;;;;;;;12.03;7.93;;;;;;;15.65;62.29;98715.00;114431;1193;64439;-89
2021/04/21 07:42:04;;;;;;;14.10;8.53;;;;;;;15.59;62.25;98712.88;114343;1193;64362;-87
2021/04/21 07:44:36;;;;;;;11.77;8.37;;;;;;;15.62;63.16;98710.75;114514;1193;64545;-84
2021/04/21 07:47:06;;;;;;;10.85;7.25;;;;;;;15.92;62.83;98717.64;114553;1193;64369;-85
2021/04/21 07:49:35;;;;;;;13.33;9.00;;;;;;;15.97;62.27;98713.63;114422;1193;64340;-83
2021/04/21 07:52:02;;;;;;;10.45;7.50;;;;;;;15.97;62.63;98713.63;114421;1193;64365;-90
2021/04/21 07:54:30;;;;;;;13.53;8.57;;;;;;;16.01;61.76;98709.64;114402;1193;64519;-85
2021/04/21 07:57:03;;;;;;;10.90;8.07;;;;;;;15.89;62.16;98712.55;114461;1193;64353;-88
2021/04/21 07:59:34;;;;;;;15.27;9.30;;;;;;;15.98;62.00;98718.04;114406;1193;64334;-90
2021/04/21 08:02:09;;;;;;;13.50;8.47;;;;;;;16.17;62.61;98715.20;114367;1193;64353;-89
2021/04/21 08:04:48;;;;;;;17.23;8.47;;;;;;;16.38;61.33;98713.02;114443;1193;64452;-86
2021/04/21 08:07:27;;;;;;;15.27;9.90;;;;;;;16.33;62.00;98711.78;114641;1192;64289;-86
2021/04/21 08:09:54;;;;;;;19.13;8.50;;;;;;;16.47;62.06;98706.67;114566;1193;64475;-89
2021/04/21 08:12:24;;;;;;;22.70;10.70;;;;;;;16.66;62.28;98716.42;114574;1193;64333;-86
2021/04/21 08:14:56;;;;;;;15.87;9.07;;;;;;;16.73;61.74;98717.55;114393;1193;64295;-90
2021/04/21 08:17:22;;;;;;;12.10;8.40;;;;;;;16.63;61.21;98718.61;114383;1192;64487;-88
2021/04/21 08:19:55;;;;;;;14.03;8.90;;;;;;;16.64;60.98;98717.59;114554;1193;64423;-85
2021/04/21 08:22:27;;;;;;;12.55;8.80;;;;;;;16.84;61.75;98723.66;114543;1193;64372;-83
2021/04/21 08:24:56;;;;;;;12.10;8.17;;;;;;;17.32;61.26;98716.88;114512;1193;64330;-84
2021/04/21 08:27:25;;;;;;;20.90;8.30;;;;;;;17.58;60.83;98717.66;114576;1193;64350;-85
2021/04/21 08:29:52;;;;;;;11.90;7.87;;;;;;;17.77;60.27;98716.56;114457;1193;64362;-86
2021/04/21 08:32:22;;;;;;;12.57;7.83;;;;;;;17.94;60.78;98712.03;114389;1192;64439;-88
2021/04/21 08:34:50;;;;;;;16.35;7.95;;;;;;;18.02;60.27;98714.77;114446;1193;64516;-85
2021/04/21 08:37:18;;;;;;;12.27;6.83;;;;;;;18.10;60.44;98712.08;114398;1193;64480;-85
2021/04/21 08:39:45;;;;;;;12.23;6.80;;;;;;;18.12;57.80;98711.89;114427;1193;64384;-83
2021/04/21 08:42:13;;;;;;;7.70;6.60;;;;;;;17.90;60.16;98716.94;114331;1193;64459;-91
2021/04/21 08:44:41;;;;;;;8.93;7.00;;;;;;;17.89;59.34;98712.55;114420;1193;64359;-90
2021/04/21 08:47:12;;;;;;;16.10;6.87;;;;;;;17.86;60.51;98718.27;114588;1193;64359;-84
2021/04/21 08:49:39;;;;;;;12.97;8.23;;;;;;;17.75;59.87;98710.46;114456;1193;64425;-87
2021/04/21 08:52:06;;;;;;;10.23;6.00;;;;;;;17.69;58.63;98719.22;114275;1193;64385;-88
2021/04/21 08:54:33;;;;;;;10.90;6.40;;;;;;;17.45;58.64;98726.20;114350;1193;64474;-85
2021/04/21 08:57:01;;;;;;;11.63;6.17;;;;;;;17.33;58.95;98724.80;114438;1193;64343;-87
2021/04/21 08:59:28;;;;;;;11.40;7.25;;;;;;;17.11;58.73;98725.34;114319;1193;64318;-86
2021/04/21 09:01:55;;;;;;;13.87;7.40;;;;;;;16.76;58.79;98719.06;114350;1193;64343;-84
2021/04/21 09:04:22;;;;;;;13.15;6.60;;;;;;;16.62;59.73;98725.84;114516;1192;64291;-84
2021/04/21 09:06:49;;;;;;;12.70;6.40;;;;;;;16.69;60.09;98721.52;114617;1192;64486;-84
2021/04/21 09:09:18;;;;;;;8.43;6.53;;;;;;;17.10;59.93;98721.80;114449;1193;64282;-85
2021/04/21 09:11:46;;;;;;;11.07;6.73;;;;;;;17.45;59.46;98726.20;114429;1193;64419;-86
2021/04/21 09:14:14;;;;;;;10.00;6.40;;;;;;;17.77;59.10;98719.27;114404;1193;64404;-83
2021/04/21 09:16:40;;;;;;;9.70;5.57;;;;;;;17.79;58.07;98709.98;114543;1192;64423;-90
2021/04/21 09:19:14;;;;;;;12.47;6.97;;;;;;;17.97;57.70;98717.12;114402;1193;64362;-84
2021/04/21 09:21:42;;;;;;;8.87;5.83;;;;;;;17.68;56.75;98712.94;114989;1193;64397;-85
2021/04/21 09:24:45;;;;;;;8.83;5.97;;;;;;;17.37;57.52;98719.91;114903;1193;64308;-84
2021/04/21 09:27:31;;;;;;;13.43;6.60;;;;;;;17.66;57.85;98708.73;114625;1193;64318;-85
2021/04/21 09:30:21;;;;;;;11.53;6.80;;;;;;;17.74;57.04;98706.08;114537;1193;64468;-85
2021/04/21 09:32:56;;;;;;;10.73;5.50;;;;;;;18.00;57.30;98712.21;114385;1193;64420;-84
2021/04/21 09:35:28;;;;;;;9.40;6.10;;;;;;;17.88;57.09;98712.69;114475;1193;64550;-85
2021/04/21 09:38:09;;;;;;;9.53;6.63;;;;;;;17.60;57.30;98701.28;114497;1193;64346;-86
2021/04/21 09:40:55;;;;;;;14.57;6.57;;;;;;;17.52;57.65;98708.34;114536;1193;64282;-87
2021/04/21 09:43:36;;;;;;;14.17;6.40;;;;;;;17.59;58.18;98704.99;114453;1192;63214;-85
2021/04/21 09:46:17;;;;;;;10.50;6.10;;;;;;;17.49;56.53;98713.21;114600;1193;64298;-87
2021/04/21 09:48:46;;;;;;;10.30;5.50;;;;;;;17.26;56.36;98707.56;114410;1193;64768;-87
2021/04/21 09:51:23;;;;;;;10.20;6.03;;;;;;;17.15;56.29;98710.53;114544;1193;64333;-85
2021/04/21 09:53:51;;;;;;;9.93;5.37;;;;;;;17.02;55.12;98701.02;114438;1193;64324;-85
2021/04/21 09:56:24;;;;;;;10.40;6.90;;;;;;;16.85;56.15;98699.22;114525;1193;64364;-88
2021/04/21 09:58:56;;;;;;;9.37;5.87;;;;;;;16.94;56.17;98695.59;114500;1193;64343;-84
2021/04/21 10:01:29;;;;;;;9.87;6.20;;;;;;;17.24;57.22;98696.94;114634;1193;64401;-86
2021/04/21 10:04:15;;;;;;;8.83;5.63;;;;;;;17.47;56.40;98704.44;114762;1192;64358;-87
2021/04/21 10:07:02;;;;;;;9.40;5.93;;;;;;;17.29;55.19;98696.43;114623;1193;64356;-85
2021/04/21 10:09:31;;;;;;;9.63;6.03;;;;;;;17.06;55.36;98708.81;114549;1193;64458;-85
2021/04/21 10:12:20;;;;;;;14.75;8.10;;;;;;;17.02;56.27;98706.42;114330;1192;64378;-86
2021/04/21 10:15:02;;;;;;;19.30;7.47;;;;;;;16.91;55.48;98708.53;114421;1192;64438;-83
2021/04/21 10:17:31;;;;;;;14.75;7.20;;;;;;;16.85;56.15;98710.02;114556;1193;64368;-86
2021/04/21 10:19:59;;;;;;;11.73;6.77;;;;;;;16.77;55.37;98701.88;114442;1193;64298;-86
2021/04/21 10:22:27;;;;;;;10.65;6.45;;;;;;;16.64;54.74;98698.72;114494;1193;64365;-86
2021/04/21 10:24:54;;;;;;;11.43;5.97;;;;;;;16.49;54.87;98704.69;114439;1193;64497;-86
2021/04/21 10:27:21;;;;;;;11.40;6.37;;;;;;;16.31;53.93;98701.17;114676;1193;64321;-86
2021/04/21 10:29:49;;;;;;;11.10;5.47;;;;;;;16.11;55.09;98705.88;114479;1192;64314;-86
2021/04/21 10:32:16;;;;;;;10.30;5.75;;;;;;;16.03;55.08;98703.12;114455;1192;64352;-85
2021/04/21 10:34:47;;;;;;;17.93;6.23;;;;;;;15.98;55.48;98704.58;114256;1193;64301;-88
2021/04/21 10:37:16;;;;;;;13.27;5.13;;;;;;;15.95;55.56;98711.94;114509;1193;64372;-85
2021/04/21 10:39:46;;;;;;;12.37;5.37;;;;;;;15.85;54.82;98704.95;114476;1193;64416;-85
2021/04/21 10:42:17;;;;;;;6.73;4.90;;;;;;;15.86;54.79;98718.25;114505;1193;64404;-88
2021/04/21 10:44:45;;;;;;;7.15;5.15;;;;;;;16.13;55.23;98708.41;114494;1193;64343;-86
2021/04/21 10:47:18;;;;;;;10.07;4.63;;;;;;;16.41;55.44;98699.24;114687;1193;64419;-87
2021/04/21 10:49:56;;;;;;;11.50;5.20;;;;;;;16.55;54.59;98696.98;114575;1193;64474;-87
2021/04/21 10:52:32;;;;;;;12.97;5.67;;;;;;;16.70;54.88;98696.27;114506;1193;64346;-85
2021/04/21 10:55:09;;;;;;;13.17;5.80;;;;;;;16.65;53.55;98698.56;114377;1193;64451;-88
2021/04/21 10:57:54;;;;;;;9.27;4.70;;;;;;;16.66;53.49;98694.86;114463;1193;64327;-84
2021/04/21 11:00:26;;;;;;;22.07;8.10;;;;;;;16.45;53.15;98692.52;114385;1193;64458;-86
2021/04/21 11:03:10;;;;;;;13.55;7.35;;;;;;;16.42;54.34;98692.84;114571;1193;64490;-87
2021/04/21 11:05:43;;;;;;;17.10;11.33;;;;;;;16.48;53.83;98684.14;114537;1193;64417;-85
2021/04/21 11:08:22;;;;;;;23.65;12.30;;;;;;;16.89;54.30;98688.98;114696;1193;64376;-85
2021/04/21 11:10:51;;;;;;;14.87;8.97;;;;;;;16.90;53.60;98683.42;114539;1193;64483;-86
2021/04/21 11:13:24;;;;;;;9.77;5.47;;;;;;;17.03;54.14;98675.73;114608;1193;64388;-86
2021/04/21 11:15:54;;;;;;;6.70;4.80;;;;;;;16.98;52.36;98678.06;114447;1193;64330;-88
2021/04/21 11:18:21;;;;;;;9.30;4.93;;;;;;;16.77;53.52;98674.07;114597;1193;64289;-85
2021/04/21 11:20:48;;;;;;;12.47;5.23;;;;;;;16.71;53.46;98675.55;114421;1193;64506;-90
2021/04/21 11:24:02;;;;;;;8.60;4.73;;;;;;;16.64;54.08;98664.52;114432;1191;64292;-87
2021/04/21 11:26:30;;;;;;;9.85;4.80;;;;;;;16.80;53.40;98679.16;114605;1192;66032;-86
2021/04/21 11:29:01;;;;;;;10.57;4.50;;;;;;;16.71;53.24;98675.55;114676;1193;64532;-88
2021/04/21 11:31:41;;;;;;;8.30;4.93;;;;;;;16.63;53.59;98672.77;114502;1193;64356;-87
2021/04/21 11:34:36;;;;;;;12.30;4.80;;;;;;;16.70;53.41;98676.56;114450;1193;64368;-84
2021/04/21 11:37:06;;;;;;;9.27;5.17;;;;;;;16.96;53.54;98665.75;114432;1193;64340;-90
2021/04/21 11:39:42;;;;;;;13.30;5.33;;;;;;;17.10;53.29;98667.00;114382;1193;64336;-88
2021/04/21 11:42:34;;;;;;;9.77;4.67;;;;;;;17.20;52.55;98676.67;114456;1193;64288;-85
2021/04/21 11:45:19;;;;;;;11.37;5.10;;;;;;;17.19;52.46;98666.89;114419;1193;64356;-87
2021/04/21 11:48:16;;;;;;;10.30;5.20;;;;;;;17.30;52.18;98663.03;114601;1193;64359;-85
2021/04/21 11:50:47;;;;;;;13.77;5.70;;;;;;;17.82;52.67;98660.20;114698;1193;64375;-86
2021/04/21 11:53:22;;;;;;;10.60;4.90;;;;;;;17.72;52.73;98662.20;114408;1193;64381;-88
2021/04/21 11:55:55;;;;;;;8.97;5.60;;;;;;;17.61;52.87;98660.61;114411;1193;64279;-89